Time;durP1;ratioP1;P1;durP2;ratioP2;P2;SDS_P1;SDS_P2;PMS_P1;PMS_P2;Temp;Humidity;BMP_temperature;BMP_pressure;BME280_temperature;BME280_humidity;BME280_pressure;Samples;Min_cycle;Max_cycle;Signal;HPM_P1;HPM_P2
2023/03/03 00:01:52;;;;;;;37.10;19.33;;;3.50;99.90;;;;;;5167780;23;20175;-89
2023/03/03 00:03:53;;;;;;;36.57;18.13;;;3.50;99.90;;;;;;5142968;23;20156;-88
2023/03/03 00:05:54;;;;;;;46.43;19.00;;;3.50;99.90;;;;;;5142720;23;20151;-88
2023/03/03 00:07:55;;;;;;;43.83;20.50;;;3.50;99.90;;;;;;5142730;23;20151;-88
2023/03/03 00:09:55;;;;;;;43.30;19.73;;;3.50;99.90;;;;;;5143369;23;20163;-89
2023/03/03 00:11:59;;;;;;;39.20;19.47;;;3.40;99.90;;;;;;5142917;23;20150;-92
2023/03/03 00:14:00;;;;;;;40.20;18.87;;;3.40;99.90;;;;;;5142884;23;20234;-88
2023/03/03 00:16:39;;;;;;;36.20;18.17;;;3.40;99.90;;;;;;5142818;23;20155;-92
2023/03/03 00:18:45;;;;;;;42.53;20.07;;;3.40;99.90;;;;;;5098077;23;20218;-89
2023/03/03 00:20:55;;;;;;;38.80;19.53;;;3.30;99.90;;;;;;5168239;22;20594;-88
2023/03/03 00:23:13;;;;;;;36.47;18.30;;;3.30;99.90;;;;;;5168099;23;20185;-88
2023/03/03 00:25:33;;;;;;;36.40;18.97;;;3.40;99.90;;;;;;5168092;23;20147;-91
2023/03/03 00:27:35;;;;;;;38.20;18.70;;;3.40;99.90;;;;;;5168006;23;20154;-88
2023/03/03 00:29:47;;;;;;;35.63;18.63;;;3.40;99.90;;;;;;5143059;23;20152;-89
2023/03/03 00:31:48;;;;;;;42.93;19.40;;;3.30;99.90;;;;;;5167903;23;20537;-88
2023/03/03 00:33:53;;;;;;;39.37;18.73;;;3.30;99.90;;;;;;5143045;23;20631;-88
2023/03/03 00:35:56;;;;;;;45.03;19.27;;;3.30;99.90;;;;;;5143152;23;20480;-93
2023/03/03 00:38:11;;;;;;;38.20;18.60;;;3.20;99.90;;;;;;5143016;23;20685;-92
2023/03/03 00:40:19;;;;;;;34.80;18.20;;;3.20;99.90;;;;;;5168023;23;20454;-89
2023/03/03 00:42:19;;;;;;;37.87;18.30;;;3.20;99.90;;;;;;5142780;23;20158;-89
2023/03/03 00:44:38;;;;;;;37.43;18.73;;;3.20;99.90;;;;;;5167897;23;20167;-88
2023/03/03 00:46:39;;;;;;;34.73;17.93;;;3.20;99.90;;;;;;5142654;23;20151;-90
2023/03/03 00:48:42;;;;;;;35.93;17.77;;;3.30;99.90;;;;;;5167933;23;20154;-92
2023/03/03 00:50:43;;;;;;;42.13;19.63;;;3.30;99.90;;;;;;5142611;23;20183;-92
2023/03/03 00:53:04;;;;;;;39.33;18.57;;;3.40;99.90;;;;;;5167753;23;20162;-92
2023/03/03 00:55:06;;;;;;;36.83;18.50;;;3.30;99.90;;;;;;5142839;23;20155;-90
2023/03/03 00:57:07;;;;;;;38.97;18.93;;;3.20;99.90;;;;;;5142766;23;20155;-89
2023/03/03 00:59:08;;;;;;;39.77;19.80;;;3.20;99.90;;;;;;5142901;23;20152;-89
2023/03/03 01:01:09;;;;;;;42.07;20.03;;;3.10;99.90;;;;;;5142418;23;20203;-88
2023/03/03 01:03:23;;;;;;;41.60;20.03;;;3.00;99.90;;;;;;5144559;23;20661;-88
2023/03/03 01:05:24;;;;;;;43.70;19.60;;;3.00;99.90;;;;;;5167720;22;20459;-89
2023/03/03 01:07:25;;;;;;;40.97;20.67;;;3.00;99.90;;;;;;5167814;23;20193;-88
2023/03/03 01:09:26;;;;;;;46.67;20.63;;;3.00;99.90;;;;;;5143231;23;20290;-89
2023/03/03 01:11:28;;;;;;;43.63;21.03;;;3.00;99.90;;;;;;5144372;23;20176;-88
2023/03/03 01:13:33;;;;;;;44.30;22.47;;;3.00;99.90;;;;;;5144158;23;20191;-88
2023/03/03 01:15:34;;;;;;;43.83;21.87;;;3.00;99.90;;;;;;5144254;23;20151;-90
2023/03/03 01:17:35;;;;;;;46.37;21.40;;;2.90;99.90;;;;;;5144216;23;20222;-88
2023/03/03 01:19:36;;;;;;;45.50;22.47;;;2.90;99.90;;;;;;5144188;23;20171;-88
2023/03/03 01:21:38;;;;;;;48.57;23.30;;;2.90;99.90;;;;;;5169121;23;20171;-89
2023/03/03 01:23:39;;;;;;;49.50;23.83;;;2.80;99.90;;;;;;5144236;23;20152;-88
2023/03/03 01:25:40;;;;;;;48.60;23.40;;;2.80;99.90;;;;;;5169167;23;20787;-88
2023/03/03 01:27:41;;;;;;;45.57;22.60;;;2.80;99.90;;;;;;5144317;23;20148;-90
2023/03/03 01:29:41;;;;;;;53.20;24.83;;;2.70;99.90;;;;;;5169205;23;20159;-89
2023/03/03 01:31:42;;;;;;;49.60;25.67;;;2.70;99.90;;;;;;5144102;23;20179;-90
2023/03/03 01:33:43;;;;;;;52.57;25.27;;;2.70;99.90;;;;;;5143786;23;20509;-88
2023/03/03 01:35:47;;;;;;;54.10;24.30;;;2.60;99.90;;;;;;5144042;23;20491;-88
2023/03/03 01:37:47;;;;;;;54.23;25.83;;;2.60;99.90;;;;;;5169227;22;20170;-88
2023/03/03 01:39:50;;;;;;;48.00;23.67;;;2.60;99.90;;;;;;5169201;23;20660;-87
2023/03/03 01:41:51;;;;;;;54.03;24.20;;;2.60;99.90;;;;;;5144007;23;20175;-89
2023/03/03 01:43:51;;;;;;;56.50;25.13;;;2.60;99.90;;;;;;5169509;23;20158;-91
2023/03/03 01:45:52;;;;;;;57.90;25.90;;;2.60;99.90;;;;;;5143866;23;20160;-88
2023/03/03 01:48:08;;;;;;;53.63;25.30;;;2.70;99.90;;;;;;5144278;23;20162;-90
2023/03/03 01:50:12;;;;;;;58.20;27.70;;;2.70;99.90;;;;;;5168931;23;20154;-89
2023/03/03 01:52:26;;;;;;;54.07;24.57;;;2.70;99.90;;;;;;5143984;23;20598;-90
2023/03/03 01:54:38;;;;;;;63.73;28.10;;;2.60;99.90;;;;;;5168553;23;20692;-88
2023/03/03 01:56:39;;;;;;;58.70;26.43;;;2.60;99.90;;;;;;5169089;23;20287;-90
2023/03/03 01:58:46;;;;;;;50.90;24.87;;;2.60;99.90;;;;;;5169135;23;20736;-91
2023/03/03 02:00:51;;;;;;;59.63;28.03;;;2.60;99.90;;;;;;5168937;23;20174;-91
2023/03/03 02:02:53;;;;;;;60.93;26.13;;;2.60;99.90;;;;;;5143753;23;20155;-88
2023/03/03 02:04:54;;;;;;;61.40;28.43;;;2.50;99.90;;;;;;5168994;23;20159;-89
2023/03/03 02:07:03;;;;;;;61.70;27.40;;;2.60;99.90;;;;;;5144087;23;20514;-89
2023/03/03 02:09:11;;;;;;;64.37;26.27;;;2.60;99.90;;;;;;5143871;23;20175;-88
2023/03/03 02:11:13;;;;;;;57.20;26.47;;;2.60;99.90;;;;;;5143556;23;20183;-89
2023/03/03 02:13:14;;;;;;;58.00;26.03;;;2.70;99.90;;;;;;5143298;23;20573;-89
2023/03/03 02:15:25;;;;;;;58.17;26.30;;;2.70;99.90;;;;;;5143423;23;20183;-89
2023/03/03 02:17:26;;;;;;;60.50;26.37;;;2.70;99.90;;;;;;5143455;23;20155;-89
2023/03/03 02:19:42;;;;;;;63.13;27.40;;;2.80;99.90;;;;;;5143681;23;20645;-89
2023/03/03 02:21:44;;;;;;;52.90;25.17;;;2.90;99.90;;;;;;5143615;23;20175;-90
2023/03/03 02:23:52;;;;;;;64.80;27.60;;;2.90;99.90;;;;;;5143748;23;20238;-89
2023/03/03 02:25:55;;;;;;;61.73;27.83;;;2.90;99.90;;;;;;5143676;23;20170;-89
2023/03/03 02:27:57;;;;;;;69.90;28.07;;;3.10;99.90;;;;;;5143948;23;20458;-89
2023/03/03 02:30:06;;;;;;;61.57;26.13;;;3.10;99.90;;;;;;5143691;23;20166;-89
2023/03/03 02:32:08;;;;;;;64.03;27.97;;;3.20;99.90;;;;;;5143638;23;20179;-88
2023/03/03 02:34:10;;;;;;;58.63;26.07;;;3.30;99.90;;;;;;5143729;23;20270;-88
2023/03/03 02:36:22;;;;;;;65.77;26.67;;;3.30;99.90;;;;;;5143921;23;20179;-88
2023/03/03 02:38:35;;;;;;;62.60;25.83;;;3.40;99.90;;;;;;5168827;23;20151;-88
2023/03/03 02:40:41;;;;;;;57.13;25.10;;;3.40;99.90;;;;;;5143402;23;20183;-91
2023/03/03 02:42:43;;;;;;;65.80;27.10;;;3.30;99.90;;;;;;5168850;23;20163;-91
2023/03/03 02:44:44;;;;;;;57.87;26.10;;;3.40;99.90;;;;;;5143611;23;20158;-91
2023/03/03 02:46:48;;;;;;;65.40;26.90;;;3.50;99.90;;;;;;5143592;23;20151;-88
2023/03/03 02:48:48;;;;;;;62.57;26.20;;;3.60;99.90;;;;;;5168811;22;20151;-88
2023/03/03 02:50:49;;;;;;;61.07;26.50;;;3.20;99.90;;;;;;5143393;23;20182;-89
2023/03/03 02:52:50;;;;;;;57.43;26.37;;;3.20;99.90;;;;;;5143387;23;20159;-88
2023/03/03 02:54:51;;;;;;;62.47;25.70;;;3.20;99.90;;;;;;5143402;23;20170;-89
2023/03/03 02:56:52;;;;;;;60.60;26.57;;;3.40;99.90;;;;;;5143396;23;20222;-89
2023/03/03 02:58:55;;;;;;;57.00;24.63;;;3.20;99.90;;;;;;5143439;23;20155;-91
2023/03/03 03:00:56;;;;;;;57.90;25.07;;;2.70;99.90;;;;;;5168360;22;20167;-89
2023/03/03 03:02:57;;;;;;;57.23;23.40;;;2.30;99.90;;;;;;5143209;23;20234;-90
2023/03/03 03:04:58;;;;;;;52.57;23.33;;;2.20;99.90;;;;;;5168637;23;20226;-89
2023/03/03 03:07:00;;;;;;;59.13;24.37;;;1.90;99.90;;;;;;5143357;23;20151;-89
2023/03/03 03:09:04;;;;;;;51.07;22.87;;;1.70;99.90;;;;;;5143395;23;20247;-90
2023/03/03 03:11:06;;;;;;;48.13;23.00;;;1.60;99.90;;;;;;5168203;22;20171;-91
2023/03/03 03:13:07;;;;;;;50.23;21.43;;;1.60;99.90;;;;;;5143164;23;20195;-89
2023/03/03 03:15:08;;;;;;;49.47;22.07;;;1.60;99.90;;;;;;5143141;23;20617;-88
2023/03/03 03:17:10;;;;;;;46.43;20.83;;;1.60;99.90;;;;;;5168398;23;20151;-89
2023/03/03 03:19:11;;;;;;;48.93;21.83;;;1.70;99.90;;;;;;5168096;23;20154;-91
2023/03/03 03:21:13;;;;;;;48.13;22.13;;;1.60;99.90;;;;;;5143220;23;20507;-89
2023/03/03 03:23:16;;;;;;;46.27;20.70;;;1.60;99.90;;;;;;5143316;23;20617;-88
2023/03/03 03:25:16;;;;;;;43.50;21.10;;;1.70;99.90;;;;;;5168148;23;20233;-89
2023/03/03 03:27:18;;;;;;;42.40;20.77;;;1.80;99.90;;;;;;5143461;23;20170;-89
2023/03/03 03:29:20;;;;;;;44.30;21.10;;;1.80;99.90;;;;;;5143342;23;20159;-90
2023/03/03 03:31:21;;;;;;;50.00;21.70;;;1.80;99.90;;;;;;5167989;23;20225;-89
2023/03/03 05:56:19;;;;;;;130.80;43.70;;;1.30;99.90;;;;;;4997910;23;20184;-93
2023/03/03 06:04:45;;;;;;;128.43;44.50;;;1.50;99.90;;;;;;5213311;22;20247;-94
2023/03/03 06:07:43;;;;;;;141.03;45.27;;;1.60;99.90;;;;;;5171911;22;20241;-92
2023/03/03 06:10:11;;;;;;;124.57;43.23;;;1.60;99.90;;;;;;5194130;22;20153;-93
2023/03/03 06:13:13;;;;;;;123.23;41.27;;;1.70;99.90;;;;;;5195297;22;20157;-93
2023/03/03 06:15:39;;;;;;;130.80;43.93;;;1.70;99.90;;;;;;5194001;22;20221;-93
2023/03/03 06:21:44;;;;;;;114.70;36.87;;;1.70;99.90;;;;;;5083698;23;20181;-92
2023/03/03 06:24:04;;;;;;;107.07;38.67;;;1.50;99.90;;;;;;5078408;23;20192;-94
2023/03/03 06:26:57;;;;;;;123.73;41.93;;;1.40;99.90;;;;;;5053532;23;20232;-94
2023/03/03 06:33:00;;;;;;;112.67;39.73;;;1.50;99.90;;;;;;5017176;23;20174;-93
